Wilbur Observed Data For Previous 48 Hours

Caption
Day and Hour Reservoir Elevation (behind dam)* Tailwater Elevation (below dam)* Average Hourly Discharge*
6/19/2018 2 AM EDT 1,647.69 1,582.79 240
6/19/2018 3 AM EDT 1,647.47 1,582.78 235
6/19/2018 4 AM EDT 1,648.43 1,582.82 240
6/19/2018 5 AM EDT 1,648.24 1,582.81 244
6/19/2018 6 AM EDT 1,648.04 1,582.80 240
6/19/2018 7 AM EDT 1,647.84 1,582.79 240
6/19/2018 8 AM EDT 1,647.62 1,582.78 238
6/19/2018 9 AM EDT 1,647.39 1,582.77 235
6/19/2018 10 AM EDT 1,647.17 1,582.76 235
6/19/2018 11 AM EDT 1,646.95 1,582.75 230
6/19/2018 12 PM EDT 1,648.23 1,583.84 236
6/19/2018 1 PM EDT 1,647.72 1,585.60 1,710
6/19/2018 2 PM EDT 1,647.10 1,585.60 1,746
6/19/2018 3 PM EDT 1,646.44 1,585.60 1,740
6/19/2018 4 PM EDT 1,645.80 1,585.57 1,733
6/19/2018 5 PM EDT 1,645.12 1,585.57 1,725
6/19/2018 6 PM EDT 1,644.68 1,585.55 1,723
6/19/2018 7 PM EDT 1,646.34 1,582.74 346
6/19/2018 8 PM EDT 1,648.04 1,582.78 233
6/19/2018 9 PM EDT 1,648.94 1,582.82 244
6/19/2018 10 PM EDT 1,648.63 1,582.81 247
6/19/2018 11 PM EDT 1,648.40 1,582.80 245
6/20/2018 12 AM EDT 1,648.18 1,582.80 243
6/20/2018 1 AM EDT 1,647.98 1,582.79 240
6/20/2018 2 AM EDT 1,647.76 1,582.78 240
6/20/2018 3 AM EDT 1,647.55 1,582.77 236
6/20/2018 4 AM EDT 1,647.32 1,582.76 235
6/20/2018 5 AM EDT 1,648.24 1,582.79 238
6/20/2018 6 AM EDT 1,648.05 1,582.78 240
6/20/2018 7 AM EDT 1,647.86 1,582.77 240
6/20/2018 8 AM EDT 1,647.36 1,583.23 237
6/20/2018 9 AM EDT 1,647.09 1,582.93 234
6/20/2018 10 AM EDT 1,646.80 1,582.92 230
6/20/2018 11 AM EDT 1,646.53 1,582.90 229
6/20/2018 12 PM EDT 1,647.68 1,583.92 232
6/20/2018 1 PM EDT 1,648.42 1,585.65 1,706
6/20/2018 2 PM EDT 1,647.84 1,585.65 1,761
6/20/2018 3 PM EDT 1,647.13 1,585.64 1,755
6/20/2018 4 PM EDT 1,646.45 1,585.63 1,745
6/20/2018 5 PM EDT 1,645.75 1,585.62 1,730
6/20/2018 6 PM EDT 1,645.00 1,585.62 1,727
6/20/2018 7 PM EDT 1,646.15 1,582.91 448
6/20/2018 8 PM EDT 1,647.51 1,582.96 230
6/20/2018 9 PM EDT 1,648.77 1,583.01 241
6/20/2018 10 PM EDT 1,649.03 1,583.03 248
6/20/2018 11 PM EDT 1,648.69 1,583.01 248
6/21/2018 12 AM EDT 1,648.38 1,583.00 245
6/21/2018 1 AM EDT 1,648.11 1,582.99 242
6/21/2018 2 AM EDT 1,647.84 1,582.98 240
6/21/2018 3 AM EDT 1,647.58 1,582.97 238
6/21/2018 4 AM EDT 1,647.30 1,582.96 235
6/21/2018 5 AM EDT 1,647.03 1,582.94 233
6/21/2018 6 AM EDT 1,647.92 1,582.98 235
6/21/2018 7 AM EDT 1,647.70 1,582.97 240
6/21/2018 8 AM EDT 1,647.43 1,582.96 235
6/21/2018 9 AM EDT 1,647.17 1,582.95 235
6/21/2018 10 AM EDT 1,646.91 1,582.93 230
6/21/2018 11 AM EDT 1,646.63 1,582.92 230
6/21/2018 12 PM EDT 1,648.59 1,582.99 237
6/21/2018 1 PM EDT 1,649.05 1,585.63 1,340
6/21/2018 2 PM EDT 1,648.62 1,585.66 1,770
6/21/2018 3 PM EDT 1,648.22 1,585.64 1,770
6/21/2018 4 PM EDT 1,647.82 1,585.66 1,767
6/21/2018 5 PM EDT 1,647.42 1,585.65 1,763
6/21/2018 6 PM EDT 1,646.99 1,585.62 1,760
6/21/2018 7 PM EDT 1,646.30 1,585.63 1,747

Elevations are in feet above sea level. Discharges are in cubic feet per second and are reported at the end of the hour.